Terminal Aerodrome Forecast
Issued by NWS

Home | Current Version | Previous Version | Text Only | Print | Product List | Glossary On
Versions: 1 2 3 4 5 6 7 8 9 10 11 12 13 14 15 16 17 18 19 20 21 22 23 24 25 26 27 28 29 30 31 32 33 34
000
FTUS41 KBOX 011727
TAFFMH
TAF
KFMH 011727Z 0118/0218 22015KT P6SM VCTS BKN006CB
     FM012200 22006KT 6SM BR BKN006
     FM020000 22006KT 3SM BR BKN001
     FM021200 22004KT P6SM BKN003
     FM021700 21008KT P6SM SCT008=

USA.gov is the U.S. government's official web portal to all federal, state and local government web resources and services.